Aviation Digital Data Service (ADDS)

Output produced by METARs form (0736 UTC 16 January 2018)
found at http://www.aviationweather.gov/adds/metars/
 
KSTC 160653Z AUTO 34013KT 10SM OVC012 M18/M21 A3061 RMK AO2 SLP405 T11831206 $
KBRD 160653Z AUTO 36010KT 10SM OVC011 M18/M21 A3063 RMK AO2 SLP412 T11831211